createdAt,value
2018-10-03T00:01:36.062Z,12.4
2018-10-03T00:06:38.380Z,12.3
2018-10-03T00:11:40.642Z,12.3
2018-10-03T00:16:42.976Z,12.2
2018-10-03T00:21:45.252Z,12.2
2018-10-03T00:26:47.584Z,12.1
2018-10-03T00:31:49.974Z,12.1
2018-10-03T00:36:52.147Z,12
2018-10-03T00:41:54.421Z,11.9
2018-10-03T00:46:56.726Z,11.9
2018-10-03T00:51:58.933Z,11.8
2018-10-03T00:57:01.300Z,11.8
2018-10-03T01:02:03.679Z,11.7
2018-10-03T01:07:05.915Z,11.7
2018-10-03T01:12:08.191Z,11.7
2018-10-03T01:17:10.496Z,11.6
2018-10-03T01:22:12.757Z,11.6
2018-10-03T01:27:15.109Z,11.6
2018-10-03T01:32:17.361Z,11.6
2018-10-03T01:37:19.603Z,11.6
2018-10-03T01:42:22.009Z,11.5
2018-10-03T01:47:24.224Z,11.4
2018-10-03T01:52:26.845Z,11.4
2018-10-03T01:57:28.913Z,11.3
2018-10-03T02:02:31.181Z,11.3
2018-10-03T02:07:33.379Z,11.3
2018-10-03T02:12:35.855Z,11.2
2018-10-03T02:17:38.025Z,11.2
2018-10-03T02:22:40.298Z,11.2
2018-10-03T02:27:42.697Z,11.2
2018-10-03T02:32:45.057Z,11.1
2018-10-03T02:37:47.239Z,11.1
2018-10-03T02:42:49.551Z,11
2018-10-03T02:47:51.729Z,11
2018-10-03T02:52:53.999Z,11
2018-10-03T02:57:56.379Z,10.9
2018-10-03T03:02:58.677Z,10.8
2018-10-03T03:08:00.973Z,10.7
2018-10-03T03:13:03.194Z,10.7
2018-10-03T03:18:05.625Z,10.7
2018-10-03T03:23:07.868Z,10.6
2018-10-03T03:28:10.190Z,10.4
2018-10-03T03:33:12.554Z,10.3
2018-10-03T03:38:14.802Z,10.3
2018-10-03T03:43:17.017Z,10.2
2018-10-03T03:48:19.370Z,10.1
2018-10-03T03:53:21.535Z,10.1
2018-10-03T03:58:23.916Z,10.1
2018-10-03T04:03:26.253Z,10
2018-10-03T04:08:28.571Z,9.8
2018-10-03T04:13:30.794Z,9.7
2018-10-03T04:18:33.041Z,9.7
2018-10-03T04:23:35.467Z,9.7
2018-10-03T04:28:37.742Z,9.7
2018-10-03T04:33:39.965Z,9.7
2018-10-03T04:38:42.454Z,9.7
2018-10-03T04:43:44.633Z,9.6
2018-10-03T04:48:46.955Z,9.7
2018-10-03T04:53:49.064Z,9.7
2018-10-03T04:58:51.458Z,9.7
2018-10-03T05:03:53.668Z,9.6
2018-10-03T05:08:55.972Z,9.6
2018-10-03T05:13:58.313Z,9.5
2018-10-03T05:19:00.689Z,9.5
2018-10-03T05:24:02.983Z,9.4
2018-10-03T05:29:05.160Z,9.4
2018-10-03T05:34:07.395Z,9.3
2018-10-03T05:39:09.910Z,9.3
2018-10-03T05:44:11.986Z,9.3
2018-10-03T05:49:14.384Z,9.3
2018-10-03T05:54:16.750Z,9.3
2018-10-03T05:59:18.905Z,9.4
2018-10-03T06:04:21.178Z,9.4
2018-10-03T06:09:23.524Z,9.5
2018-10-03T06:14:25.889Z,9.5
2018-10-03T06:19:28.147Z,9.6
2018-10-03T06:24:30.356Z,9.7
2018-10-03T06:29:32.725Z,9.8
2018-10-03T06:34:34.924Z,10
2018-10-03T06:39:37.238Z,10.2
2018-10-03T06:44:39.599Z,10.2
2018-10-03T06:49:41.810Z,10.3
2018-10-03T06:54:44.144Z,10.7
2018-10-03T06:59:46.495Z,11.1
2018-10-03T07:04:48.866Z,11.3
2018-10-03T07:09:50.996Z,11.2
2018-10-03T07:14:53.470Z,11.1
2018-10-03T07:19:55.633Z,11.1
2018-10-03T07:24:57.945Z,11.1
2018-10-03T07:30:00.357Z,11.2
2018-10-03T07:35:02.503Z,11.3
2018-10-03T07:40:04.779Z,11.4
2018-10-03T07:45:07.196Z,11.6
2018-10-03T07:50:09.432Z,11.8
2018-10-03T07:55:11.713Z,12.1
2018-10-03T08:00:14.016Z,12.3
2018-10-03T08:10:18.592Z,12.6
2018-10-03T08:15:20.938Z,12.7
2018-10-03T08:20:23.181Z,13
2018-10-03T08:25:25.441Z,13.1
2018-10-03T08:30:27.714Z,13.3
2018-10-03T08:35:30.078Z,13.3
2018-10-03T08:40:32.369Z,13.1
2018-10-03T08:45:34.637Z,13.2
2018-10-03T08:50:36.961Z,13.3
2018-10-03T08:55:39.273Z,13.5
2018-10-03T09:00:41.499Z,13.7
2018-10-03T09:05:43.879Z,13.8
2018-10-03T09:10:46.196Z,13.9
2018-10-03T09:15:48.412Z,14.1
2018-10-03T09:20:50.709Z,14.1
2018-10-03T09:25:52.920Z,14.2
2018-10-03T09:30:55.306Z,14.4
2018-10-03T09:35:57.561Z,14.6
2018-10-03T09:40:59.918Z,14.8
2018-10-03T09:46:02.134Z,14.9
2018-10-03T09:51:04.536Z,14.7
2018-10-03T09:56:06.716Z,15
2018-10-03T10:01:09.108Z,15.3
2018-10-03T10:06:11.316Z,15.4
2018-10-03T10:11:13.756Z,15.5
2018-10-03T10:16:15.930Z,15.7
2018-10-03T10:21:18.237Z,16
2018-10-03T10:26:20.476Z,16.200001
2018-10-03T10:31:22.993Z,16.1
2018-10-03T10:36:25.153Z,16.4
2018-10-03T10:41:27.607Z,16.5
2018-10-03T10:46:29.708Z,16.9
2018-10-03T10:51:32.040Z,17
2018-10-03T10:56:34.322Z,16.799999
2018-10-03T11:01:36.590Z,17.200001
2018-10-03T11:06:39.312Z,17.700001
2018-10-03T11:11:41.221Z,17.200001
2018-10-03T11:16:43.555Z,17.1
2018-10-03T11:21:45.684Z,17.9
2018-10-03T11:26:48.034Z,18.299999
2018-10-03T11:31:50.692Z,18.4
2018-10-03T11:36:52.692Z,19.200001
2018-10-03T11:41:54.885Z,19.200001
2018-10-03T11:46:57.227Z,18.200001
2018-10-03T11:51:59.588Z,18.299999
2018-10-03T11:57:01.972Z,19.299999
2018-10-03T12:02:04.164Z,20.200001
2018-10-03T12:07:06.455Z,19.299999
2018-10-03T12:12:08.797Z,20.1
2018-10-03T12:17:10.984Z,20.9
2018-10-03T12:22:13.404Z,20.700001
2018-10-03T12:27:15.769Z,19.6
2018-10-03T12:32:17.813Z,19.1
2018-10-03T12:37:20.125Z,20
2018-10-03T12:42:22.499Z,20.6
2018-10-03T12:47:24.773Z,20.200001
2018-10-03T12:52:27.058Z,20.1
2018-10-03T13:02:31.720Z,20.700001
2018-10-03T13:07:33.976Z,20.9
2018-10-03T13:12:36.596Z,20.6
2018-10-03T13:17:38.692Z,20.4
2018-10-03T13:22:40.748Z,20.299999
2018-10-03T13:27:43.090Z,20.299999
2018-10-03T13:32:45.359Z,20.5
2018-10-03T13:37:47.838Z,20.4
2018-10-03T13:42:50.106Z,20.1
2018-10-03T13:47:52.250Z,20
2018-10-03T13:52:54.523Z,19.799999
2018-10-03T13:57:57.014Z,19
2018-10-03T14:02:59.205Z,18.5
2018-10-03T14:08:01.517Z,18.799999
2018-10-03T14:13:03.781Z,18.799999
2018-10-03T14:18:05.994Z,18.700001
2018-10-03T14:23:08.519Z,18.299999
2018-10-03T14:28:10.617Z,18
2018-10-03T14:33:12.967Z,17.6
2018-10-03T14:38:15.284Z,17.4
2018-10-03T14:43:17.612Z,17.299999
2018-10-03T14:48:19.829Z,17.1
2018-10-03T14:53:22.186Z,16.9
2018-10-03T14:58:24.560Z,16.700001
2018-10-03T15:03:26.701Z,16.700001
2018-10-03T15:08:29.035Z,16.6
2018-10-03T15:13:31.345Z,16.6
2018-10-03T15:18:33.620Z,16.700001
2018-10-03T15:23:37.470Z,17.200001
2018-10-03T15:28:38.214Z,17.6
2018-10-03T15:33:40.477Z,17.5
2018-10-03T15:38:42.726Z,17.1
2018-10-03T15:43:45.044Z,16.799999
2018-10-03T15:48:47.456Z,16.6
2018-10-03T15:53:49.639Z,16.1
2018-10-03T15:58:51.907Z,15.9
2018-10-03T16:03:54.183Z,16.5
2018-10-03T16:08:56.602Z,16.299999
2018-10-03T16:13:58.779Z,16.299999
2018-10-03T16:19:01.064Z,15.8
2018-10-03T16:24:03.468Z,15.3
2018-10-03T16:29:05.656Z,15
2018-10-03T16:34:07.970Z,14.8
2018-10-03T16:39:10.563Z,14.6
2018-10-03T16:44:12.646Z,14.4
2018-10-03T16:49:14.889Z,14.3
2018-10-03T16:54:17.095Z,14.1
2018-10-03T16:59:19.480Z,13.9
2018-10-03T17:04:21.819Z,13.7
2018-10-03T17:09:24.047Z,13.6
2018-10-03T17:14:26.378Z,13.4
2018-10-03T17:19:28.919Z,13.2
2018-10-03T17:24:31.121Z,13.1
2018-10-03T17:29:33.153Z,13.1
2018-10-03T17:34:35.692Z,13
2018-10-03T17:39:37.829Z,13
2018-10-03T17:44:40.112Z,13
2018-10-03T17:49:42.541Z,13.1
2018-10-03T17:54:44.819Z,13.1
2018-10-03T17:59:47.005Z,13.2
2018-10-03T18:04:49.261Z,13.3
2018-10-03T18:09:51.594Z,13.3
2018-10-03T18:14:53.904Z,13.2
2018-10-03T18:19:56.219Z,13.2
2018-10-03T18:24:58.507Z,13.2
2018-10-03T18:30:00.793Z,13.2
2018-10-03T18:35:03.107Z,13.2
2018-10-03T18:40:05.322Z,13.2
2018-10-03T18:45:07.687Z,13.2
2018-10-03T18:50:09.943Z,13.2
2018-10-03T18:55:12.236Z,13.2
2018-10-03T19:00:14.588Z,13.2
2018-10-03T19:05:16.914Z,13.2
2018-10-03T19:10:19.095Z,13.2
2018-10-03T19:15:21.624Z,13.2
2018-10-03T19:20:23.662Z,13.1
2018-10-03T19:25:26.094Z,13.1
2018-10-03T19:30:28.468Z,13.1
2018-10-03T19:35:30.739Z,13.1
2018-10-03T19:40:33.014Z,13.1
2018-10-03T19:45:35.227Z,13.1
2018-10-03T19:50:37.437Z,13
2018-10-03T19:55:39.900Z,13
2018-10-03T20:00:42.202Z,13
2018-10-03T20:05:44.372Z,13
2018-10-03T20:10:46.804Z,13
2018-10-03T20:15:48.841Z,13
2018-10-03T20:20:51.265Z,13
2018-10-03T20:25:53.519Z,13
2018-10-03T20:30:55.793Z,13
2018-10-03T20:35:58.088Z,13
2018-10-03T20:41:00.371Z,13
2018-10-03T20:46:02.722Z,13
2018-10-03T20:51:04.992Z,13
2018-10-03T20:56:07.267Z,12.9
2018-10-03T21:01:09.541Z,12.9
2018-10-03T21:06:11.903Z,12.9
2018-10-03T21:11:14.095Z,12.9
2018-10-03T21:16:16.461Z,12.9
2018-10-03T21:21:18.836Z,12.9
2018-10-03T21:26:21.007Z,12.9
2018-10-03T21:31:23.256Z,13
2018-10-03T21:36:25.633Z,12.9
2018-10-03T21:41:27.913Z,12.9
2018-10-03T21:46:30.263Z,12.9
2018-10-03T21:51:32.565Z,12.9
2018-10-03T21:56:34.921Z,12.9
2018-10-03T22:01:37.058Z,12.9
2018-10-03T22:06:39.508Z,12.9
2018-10-03T22:11:41.678Z,12.9
2018-10-03T22:16:44.004Z,12.9
2018-10-03T22:21:46.312Z,12.9
2018-10-03T22:26:48.534Z,12.9
2018-10-03T22:31:50.914Z,12.9
2018-10-03T22:36:53.248Z,12.9
2018-10-03T22:41:55.388Z,12.9
2018-10-03T22:46:57.778Z,12.9
2018-10-03T22:52:00.209Z,12.9
2018-10-03T22:57:02.323Z,12.9
2018-10-03T23:02:04.692Z,12.9
2018-10-03T23:07:07.029Z,12.9
2018-10-03T23:12:09.149Z,12.9
2018-10-03T23:17:11.444Z,12.9
2018-10-03T23:22:13.885Z,12.9
2018-10-03T23:27:16.148Z,12.9
2018-10-03T23:32:18.379Z,12.9
2018-10-03T23:37:20.769Z,12.9
2018-10-03T23:42:23.025Z,12.9
2018-10-03T23:47:25.269Z,12.9
2018-10-03T23:52:27.536Z,12.9
2018-10-03T23:57:29.890Z,12.9
